<?xml version="1.0" encoding="utf-8"?>
<gpx xmlns:xsi="http://www.w3.org/2001/XMLSchema-instance" xmlns:xsd="http://www.w3.org/2001/XMLSchema" version="1.1" creator="Shapelink.com" xmlns="http://www.topografix.com/GPX/1/1" xmlns:gpxtpx="http://www.garmin.com/xmlschemas/TrackPointExtension/v1">
  <metadata>
    <name>Övrigt 3.13 km, 2020-06-02</name>
    <desc></desc>
    <author><name>Marian Moron</name></author> 
    <time>2020-06-02T19:23:10Z</time>
  </metadata>
  <trk>
    <name>Övrigt 3.13 km, 2020-06-02</name>
    <trkseg>
      <trkpt lat="51.228838233882" lon="4.448693341181">
        <ele>3.6</ele>
        <time>2020-06-02T19:23:10Z</time>
      </trkpt>
      <trkpt lat="51.228989108082" lon="4.448478345446">
        <ele>3.2</ele>
        <time>2020-06-02T19:23:33Z</time>
      </trkpt>
      <trkpt lat="51.229332598344" lon="4.448935997186">
        <ele>2.6</ele>
        <time>2020-06-02T19:24:28Z</time>
      </trkpt>
      <trkpt lat="51.229482299078" lon="4.449613422344">
        <ele>3.6</ele>
        <time>2020-06-02T19:25:18Z</time>
      </trkpt>
      <trkpt lat="51.229612218528" lon="4.450199149516">
        <ele>4.4</ele>
        <time>2020-06-02T19:26:12Z</time>
      </trkpt>
      <trkpt lat="51.229702156315" lon="4.450599385241">
        <ele>7.8</ele>
        <time>2020-06-02T19:26:45Z</time>
      </trkpt>
      <trkpt lat="51.229902819001" lon="4.450884788936">
        <ele>12</ele>
        <time>2020-06-02T19:28:01Z</time>
      </trkpt>
      <trkpt lat="51.229956211704" lon="4.450859391779">
        <ele>13.2</ele>
        <time>2020-06-02T19:28:07Z</time>
      </trkpt>
      <trkpt lat="51.230368601184" lon="4.450842208884">
        <ele>3</ele>
        <time>2020-06-02T19:28:49Z</time>
      </trkpt>
      <trkpt lat="51.230457616962" lon="4.450803903601">
        <ele>0.4</ele>
        <time>2020-06-02T19:29:02Z</time>
      </trkpt>
      <trkpt lat="51.230496425159" lon="4.45098503646">
        <ele>13.2</ele>
        <time>2020-06-02T19:30:34Z</time>
      </trkpt>
      <trkpt lat="51.230568258042" lon="4.451383092891">
        <ele>13</ele>
        <time>2020-06-02T19:31:06Z</time>
      </trkpt>
      <trkpt lat="51.230643192228" lon="4.451704957851">
        <ele>5.6</ele>
        <time>2020-06-02T19:31:35Z</time>
      </trkpt>
      <trkpt lat="51.230704128641" lon="4.452179373391">
        <ele>13.6</ele>
        <time>2020-06-02T19:32:11Z</time>
      </trkpt>
      <trkpt lat="51.230838239041" lon="4.452687567988">
        <ele>10</ele>
        <time>2020-06-02T19:33:00Z</time>
      </trkpt>
      <trkpt lat="51.230953490166" lon="4.453387121362">
        <ele>12.6</ele>
        <time>2020-06-02T19:34:05Z</time>
      </trkpt>
      <trkpt lat="51.230968661405" lon="4.453456104399">
        <ele>13</ele>
        <time>2020-06-02T19:34:10Z</time>
      </trkpt>
      <trkpt lat="51.231065807626" lon="4.45415926199">
        <ele>9.4</ele>
        <time>2020-06-02T19:35:03Z</time>
      </trkpt>
      <trkpt lat="51.231223974079" lon="4.454826209773">
        <ele>3.6</ele>
        <time>2020-06-02T19:36:00Z</time>
      </trkpt>
      <trkpt lat="51.231281557732" lon="4.455546214983">
        <ele>4.8</ele>
        <time>2020-06-02T19:36:54Z</time>
      </trkpt>
      <trkpt lat="51.231257669317" lon="4.455867828486">
        <ele>10.2</ele>
        <time>2020-06-02T19:37:35Z</time>
      </trkpt>
      <trkpt lat="51.23125574148" lon="4.455855590912">
        <ele>12.4</ele>
        <time>2020-06-02T19:37:56Z</time>
      </trkpt>
      <trkpt lat="51.231183489502" lon="4.455923819578">
        <ele>18.2</ele>
        <time>2020-06-02T19:38:10Z</time>
      </trkpt>
      <trkpt lat="51.231094054629" lon="4.45593873936">
        <ele>18.2</ele>
        <time>2020-06-02T19:38:18Z</time>
      </trkpt>
      <trkpt lat="51.230773698411" lon="4.456266555469">
        <ele>6.8</ele>
        <time>2020-06-02T19:39:08Z</time>
      </trkpt>
      <trkpt lat="51.230425346647" lon="4.45655732358">
        <ele>4.6</ele>
        <time>2020-06-02T19:39:58Z</time>
      </trkpt>
      <trkpt lat="51.230365835157" lon="4.456691266342">
        <ele>1.6</ele>
        <time>2020-06-02T19:40:12Z</time>
      </trkpt>
      <trkpt lat="51.230117060365" lon="4.456623456771">
        <ele>6.6</ele>
        <time>2020-06-02T19:40:46Z</time>
      </trkpt>
      <trkpt lat="51.230095770339" lon="4.456623205314">
        <ele>7.6</ele>
        <time>2020-06-02T19:40:48Z</time>
      </trkpt>
      <trkpt lat="51.229849510117" lon="4.457017573709">
        <ele>9.8</ele>
        <time>2020-06-02T19:41:34Z</time>
      </trkpt>
      <trkpt lat="51.229910865625" lon="4.457724419336">
        <ele>3.8</ele>
        <time>2020-06-02T19:42:23Z</time>
      </trkpt>
      <trkpt lat="51.229904327743" lon="4.45792441147">
        <ele>2</ele>
        <time>2020-06-02T19:42:36Z</time>
      </trkpt>
      <trkpt lat="51.229847163185" lon="4.457967829712">
        <ele>2.2</ele>
        <time>2020-06-02T19:42:43Z</time>
      </trkpt>
      <trkpt lat="51.229814809051" lon="4.458071010901">
        <ele>7.6</ele>
        <time>2020-06-02T19:54:00Z</time>
      </trkpt>
      <trkpt lat="51.229904746838" lon="4.458034717274">
        <ele>7</ele>
        <time>2020-06-02T19:54:16Z</time>
      </trkpt>
      <trkpt lat="51.230043215826" lon="4.458686409999">
        <ele>6.8</ele>
        <time>2020-06-02T19:54:53Z</time>
      </trkpt>
      <trkpt lat="51.230071211372" lon="4.458805600617">
        <ele>3.4</ele>
        <time>2020-06-02T19:55:04Z</time>
      </trkpt>
      <trkpt lat="51.23046281374" lon="4.458739467426">
        <ele>5.4</ele>
        <time>2020-06-02T19:55:37Z</time>
      </trkpt>
      <trkpt lat="51.230510339113" lon="4.458871398532">
        <ele>6.4</ele>
        <time>2020-06-02T19:56:14Z</time>
      </trkpt>
      <trkpt lat="51.230504639421" lon="4.458913559489">
        <ele>6.4</ele>
        <time>2020-06-02T19:56:17Z</time>
      </trkpt>
      <trkpt lat="51.230511764036" lon="4.459174571855">
        <ele>2.2</ele>
        <time>2020-06-02T19:56:49Z</time>
      </trkpt>
      <trkpt lat="51.230541938876" lon="4.459555277753">
        <ele>4</ele>
        <time>2020-06-02T19:57:13Z</time>
      </trkpt>
      <trkpt lat="51.23045946098" lon="4.459751581851">
        <ele>1.2</ele>
        <time>2020-06-02T19:57:41Z</time>
      </trkpt>
      <trkpt lat="51.230565743472" lon="4.459932882348">
        <ele>1.4</ele>
        <time>2020-06-02T19:58:03Z</time>
      </trkpt>
      <trkpt lat="51.230582171996" lon="4.459916956738">
        <ele>1.6</ele>
        <time>2020-06-02T19:58:05Z</time>
      </trkpt>
      <trkpt lat="51.230627015161" lon="4.459915364177">
        <ele>4</ele>
        <time>2020-06-02T19:58:08Z</time>
      </trkpt>
      <trkpt lat="51.230646461169" lon="4.460135808147">
        <ele>3.6</ele>
        <time>2020-06-02T19:58:27Z</time>
      </trkpt>
      <trkpt lat="51.230677641837" lon="4.460713404876">
        <ele>0</ele>
        <time>2020-06-02T19:59:06Z</time>
      </trkpt>
      <trkpt lat="51.230417719118" lon="4.460813568581">
        <ele>2.6</ele>
        <time>2020-06-02T19:59:43Z</time>
      </trkpt>
      <trkpt lat="51.23032032144" lon="4.46086813475">
        <ele>3</ele>
        <time>2020-06-02T19:59:58Z</time>
      </trkpt>
      <trkpt lat="51.229919582801" lon="4.460949606818">
        <ele>4.6</ele>
        <time>2020-06-02T20:00:25Z</time>
      </trkpt>
      <trkpt lat="51.229884546459" lon="4.460909792793">
        <ele>2.6</ele>
        <time>2020-06-02T20:00:31Z</time>
      </trkpt>
      <trkpt lat="51.229832075765" lon="4.460889424776">
        <ele>3.4</ele>
        <time>2020-06-02T20:00:42Z</time>
      </trkpt>
      <trkpt lat="51.229742976168" lon="4.460917671779">
        <ele>5</ele>
        <time>2020-06-02T20:00:53Z</time>
      </trkpt>
      <trkpt lat="51.229736019191" lon="4.460983218237">
        <ele>5.6</ele>
        <time>2020-06-02T20:00:59Z</time>
      </trkpt>
      <trkpt lat="51.229797542337" lon="4.461153203169">
        <ele>2.6</ele>
        <time>2020-06-02T20:01:16Z</time>
      </trkpt>
      <trkpt lat="51.229826040797" lon="4.461255881444">
        <ele>3.4</ele>
        <time>2020-06-02T20:01:25Z</time>
      </trkpt>
      <trkpt lat="51.230026703483" lon="4.461890139817">
        <ele>1.2</ele>
        <time>2020-06-02T20:02:09Z</time>
      </trkpt>
      <trkpt lat="51.230056123952" lon="4.462210328397">
        <ele>5</ele>
        <time>2020-06-02T20:02:53Z</time>
      </trkpt>
      <trkpt lat="51.230234406965" lon="4.462837713612">
        <ele>6.4</ele>
        <time>2020-06-02T20:03:49Z</time>
      </trkpt>
      <trkpt lat="51.230337671973" lon="4.463053631356">
        <ele>9.2</ele>
        <time>2020-06-02T20:04:53Z</time>
      </trkpt>
      <trkpt lat="51.230433309452" lon="4.463746730667">
        <ele>10</ele>
        <time>2020-06-02T20:05:32Z</time>
      </trkpt>
      <trkpt lat="51.230077916892" lon="4.464174626662">
        <ele>1</ele>
        <time>2020-06-02T20:06:12Z</time>
      </trkpt>
      <trkpt lat="51.229825286426" lon="4.464201281104">
        <ele>11.8</ele>
        <time>2020-06-02T20:07:03Z</time>
      </trkpt>
      <trkpt lat="51.229402251933" lon="4.464335307685">
        <ele>7.8</ele>
        <time>2020-06-02T20:07:52Z</time>
      </trkpt>
      <trkpt lat="51.228984162761" lon="4.46440781112">
        <ele>7.6</ele>
        <time>2020-06-02T20:08:45Z</time>
      </trkpt>
      <trkpt lat="51.228807137033" lon="4.464324997948">
        <ele>3</ele>
        <time>2020-06-02T20:09:12Z</time>
      </trkpt>
      <trkpt lat="51.228619047197" lon="4.464346455612">
        <ele>0</ele>
        <time>2020-06-02T20:09:41Z</time>
      </trkpt>
      <trkpt lat="51.228630446581" lon="4.464384174162">
        <ele>0</ele>
        <time>2020-06-02T20:09:43Z</time>
      </trkpt>
      <trkpt lat="51.228753828149" lon="4.465070400315">
        <ele>2.8</ele>
        <time>2020-06-02T20:10:27Z</time>
      </trkpt>
      <trkpt lat="51.22871015845" lon="4.465413303844">
        <ele>2</ele>
        <time>2020-06-02T20:10:51Z</time>
      </trkpt>
      <trkpt lat="51.228695490125" lon="4.465451776765">
        <ele>1</ele>
        <time>2020-06-02T20:10:54Z</time>
      </trkpt>
      <trkpt lat="51.22868501275" lon="4.465539535258">
        <ele>0.4</ele>
        <time>2020-06-02T20:11:01Z</time>
      </trkpt>
      <trkpt lat="51.228672020805" lon="4.465636765298">
        <ele>0</ele>
        <time>2020-06-02T20:11:07Z</time>
      </trkpt>
      <trkpt lat="51.22849222905" lon="4.465930886169">
        <ele>0</ele>
        <time>2020-06-02T20:11:32Z</time>
      </trkpt>
      <trkpt lat="51.228316795883" lon="4.466151665415">
        <ele>0.6</ele>
        <time>2020-06-02T20:12:04Z</time>
      </trkpt>
      <trkpt lat="51.227909267905" lon="4.466352998653">
        <ele>4.6</ele>
        <time>2020-06-02T20:12:45Z</time>
      </trkpt>
      <trkpt lat="51.227874985934" lon="4.466275885173">
        <ele>4.4</ele>
        <time>2020-06-02T20:12:54Z</time>
      </trkpt>
      <trkpt lat="51.22783089714" lon="4.465907835944">
        <ele>0</ele>
        <time>2020-06-02T20:13:37Z</time>
      </trkpt>
      <trkpt lat="51.227815977358" lon="4.465594101427">
        <ele>0</ele>
        <time>2020-06-02T20:14:11Z</time>
      </trkpt>
      <trkpt lat="51.227883367834" lon="4.465362090435">
        <ele>4.2</ele>
        <time>2020-06-02T20:14:27Z</time>
      </trkpt>
      <trkpt lat="51.227894851037" lon="4.464634625334">
        <ele>11.4</ele>
        <time>2020-06-02T20:15:07Z</time>
      </trkpt>
      <trkpt lat="51.227874063925" lon="4.463913111382">
        <ele>10.8</ele>
        <time>2020-06-02T20:15:50Z</time>
      </trkpt>
      <trkpt lat="51.227859227962" lon="4.463829124744">
        <ele>12</ele>
        <time>2020-06-02T20:15:58Z</time>
      </trkpt>
      <trkpt lat="51.227826790009" lon="4.463685039883">
        <ele>13</ele>
        <time>2020-06-02T20:16:11Z</time>
      </trkpt>
      <trkpt lat="51.227690416496" lon="4.463034436805">
        <ele>0</ele>
        <time>2020-06-02T20:17:17Z</time>
      </trkpt>
      <trkpt lat="51.227688991573" lon="4.463021025765">
        <ele>0</ele>
        <time>2020-06-02T20:17:18Z</time>
      </trkpt>
      <trkpt lat="51.227577596122" lon="4.462454325506">
        <ele>4.6</ele>
        <time>2020-06-02T20:17:58Z</time>
      </trkpt>
      <trkpt lat="51.227565358548" lon="4.462430688548">
        <ele>5.4</ele>
        <time>2020-06-02T20:18:00Z</time>
      </trkpt>
      <trkpt lat="51.227390512114" lon="4.461773966683">
        <ele>0</ele>
        <time>2020-06-02T20:18:42Z</time>
      </trkpt>
      <trkpt lat="51.227379699463" lon="4.461493256852">
        <ele>2.4</ele>
        <time>2020-06-02T20:19:59Z</time>
      </trkpt>
      <trkpt lat="51.227357487428" lon="4.461168709684">
        <ele>0</ele>
        <time>2020-06-02T20:20:30Z</time>
      </trkpt>
      <trkpt lat="51.227513893682" lon="4.460749782322">
        <ele>7</ele>
        <time>2020-06-02T20:21:11Z</time>
      </trkpt>
      <trkpt lat="51.22784514637" lon="4.460662107648">
        <ele>13.6</ele>
        <time>2020-06-02T20:21:56Z</time>
      </trkpt>
      <trkpt lat="51.228265331017" lon="4.460328591847">
        <ele>17.2</ele>
        <time>2020-06-02T20:22:39Z</time>
      </trkpt>
      <trkpt lat="51.228287375414" lon="4.460249382892">
        <ele>13</ele>
        <time>2020-06-02T20:22:40Z</time>
      </trkpt>
      <trkpt lat="51.228337331538" lon="4.459972444916">
        <ele>0.6</ele>
        <time>2020-06-02T20:23:02Z</time>
      </trkpt>
      <trkpt lat="51.228494995077" lon="4.459315723051">
        <ele>0</ele>
        <time>2020-06-02T20:23:42Z</time>
      </trkpt>
      <trkpt lat="51.228483679512" lon="4.459273729732">
        <ele>0</ele>
        <time>2020-06-02T20:23:44Z</time>
      </trkpt>
      <trkpt lat="51.228506226823" lon="4.459134674011">
        <ele>0.4</ele>
        <time>2020-06-02T20:23:56Z</time>
      </trkpt>
      <trkpt lat="51.228564145752" lon="4.458918840086">
        <ele>1.4</ele>
        <time>2020-06-02T20:24:13Z</time>
      </trkpt>
      <trkpt lat="51.228552494911" lon="4.458859580053">
        <ele>0.2</ele>
        <time>2020-06-02T20:24:18Z</time>
      </trkpt>
      <trkpt lat="51.228532965084" lon="4.458808115187">
        <ele>0</ele>
        <time>2020-06-02T20:24:22Z</time>
      </trkpt>
      <trkpt lat="51.228541514622" lon="4.45828650955">
        <ele>0</ele>
        <time>2020-06-02T20:24:59Z</time>
      </trkpt>
      <trkpt lat="51.228582250656" lon="4.458181568162">
        <ele>0.4</ele>
        <time>2020-06-02T20:25:17Z</time>
      </trkpt>
      <trkpt lat="51.22903202341" lon="4.458163379439">
        <ele>8.4</ele>
        <time>2020-06-02T20:25:59Z</time>
      </trkpt>
      <trkpt lat="51.2294687204" lon="4.457991634308">
        <ele>6.8</ele>
        <time>2020-06-02T20:26:35Z</time>
      </trkpt>
      <trkpt lat="51.229825621702" lon="4.457700866197">
        <ele>6</ele>
        <time>2020-06-02T20:27:15Z</time>
      </trkpt>
      <trkpt lat="51.229823107132" lon="4.457651496806">
        <ele>5.4</ele>
        <time>2020-06-02T20:27:18Z</time>
      </trkpt>
      <trkpt lat="51.229913883109" lon="4.45765786705">
        <ele>0</ele>
        <time>2020-06-02T20:28:06Z</time>
      </trkpt>
      <trkpt lat="51.229800895097" lon="4.45783556333">
        <ele>0.8</ele>
        <time>2020-06-02T20:28:28Z</time>
      </trkpt>
      <trkpt lat="51.229647925422" lon="4.457910078421">
        <ele>2.2</ele>
        <time>2020-06-02T20:28:58Z</time>
      </trkpt>
      <trkpt lat="51.229491435349" lon="4.458006721728">
        <ele>5.8</ele>
        <time>2020-06-02T20:29:44Z</time>
      </trkpt>
      <trkpt lat="51.229745406919" lon="4.457974870508">
        <ele>2.2</ele>
        <time>2020-06-02T20:30:17Z</time>
      </trkpt>
    </trkseg>
  </trk>
</gpx>